Time;durP1;ratioP1;P1;durP2;ratioP2;P2;SDS_P1;SDS_P2;PMS_P1;PMS_P2;Temp;Humidity;BMP_temperature;BMP_pressure;BME280_temperature;BME280_humidity;BME280_pressure;Samples;Min_cycle;Max_cycle;Signal;HPM_P1;HPM_P2
2023/01/20 00:01:22;;;;;;;0.30;0.30;;;1.50;99.90;;;;;;5048295;28;20465;-82
2023/01/20 00:03:48;;;;;;;0.33;0.33;;;1.50;99.90;;;;;;5048094;28;20477;-82
2023/01/20 00:06:13;;;;;;;0.40;0.40;;;1.50;99.90;;;;;;5049089;28;20467;-81
2023/01/20 00:08:39;;;;;;;0.50;0.50;;;1.50;99.90;;;;;;5043908;28;20851;-82
2023/01/20 00:11:10;;;;;;;0.40;0.40;;;1.50;99.90;;;;;;5043774;28;20191;-82
2023/01/20 00:13:36;;;;;;;0.40;0.40;;;1.50;99.90;;;;;;5047963;28;20191;-81
2023/01/20 00:16:07;;;;;;;0.40;0.40;;;1.50;99.90;;;;;;5047547;28;20441;-82
2023/01/20 00:18:33;;;;;;;0.40;0.40;;;1.50;99.90;;;;;;5049407;28;20469;-82
2023/01/20 00:21:11;;;;;;;0.30;0.30;;;1.50;99.90;;;;;;5044422;28;20487;-81
2023/01/20 00:23:37;;;;;;;0.37;0.37;;;1.50;99.90;;;;;;5047937;28;20451;-82
2023/01/20 00:26:07;;;;;;;0.40;0.40;;;1.50;99.90;;;;;;5046316;28;20436;-82
2023/01/20 00:28:34;;;;;;;0.40;0.40;;;1.40;99.90;;;;;;5047842;28;20476;-81
2023/01/20 00:31:17;;;;;;;0.40;0.40;;;1.50;99.90;;;;;;5045072;28;20437;-82
2023/01/20 00:33:43;;;;;;;0.40;0.40;;;1.50;99.90;;;;;;5041648;28;20457;-81
2023/01/20 00:36:11;;;;;;;0.40;0.40;;;1.50;99.90;;;;;;5044310;28;20441;-81
2023/01/20 00:38:37;;;;;;;0.40;0.40;;;1.50;99.90;;;;;;5044417;28;20477;-81
2023/01/20 00:41:02;;;;;;;0.30;0.30;;;1.50;99.90;;;;;;5048811;28;20955;-81
2023/01/20 00:43:28;;;;;;;0.50;0.50;;;1.50;99.90;;;;;;5030508;28;20187;-83
2023/01/20 00:45:53;;;;;;;0.40;0.40;;;1.50;99.90;;;;;;5047682;28;20257;-81
2023/01/20 00:48:19;;;;;;;0.30;0.30;;;1.50;99.90;;;;;;5047135;28;20193;-81
2023/01/20 00:50:44;;;;;;;0.40;0.40;;;1.50;99.90;;;;;;5025667;28;20221;-83
2023/01/20 00:53:10;;;;;;;0.30;0.30;;;1.50;99.90;;;;;;5047663;28;20197;-83
2023/01/20 00:55:35;;;;;;;0.40;0.40;;;1.50;99.90;;;;;;5048844;28;20178;-83
2023/01/20 00:58:01;;;;;;;0.40;0.40;;;1.50;99.90;;;;;;5047342;28;20268;-83
2023/01/20 01:00:26;;;;;;;0.50;0.50;;;1.50;99.90;;;;;;5047428;28;20692;-83
2023/01/20 01:02:52;;;;;;;0.40;0.40;;;1.50;99.90;;;;;;5048353;28;20229;-83
2023/01/20 01:05:17;;;;;;;0.40;0.40;;;1.50;99.90;;;;;;5049606;28;20233;-83
2023/01/20 01:07:43;;;;;;;0.40;0.40;;;1.50;99.90;;;;;;5047719;28;20563;-83
2023/01/20 01:10:09;;;;;;;0.40;0.40;;;1.40;99.90;;;;;;5044817;28;20225;-81
2023/01/20 01:12:34;;;;;;;0.40;0.40;;;1.50;99.90;;;;;;5027214;28;20186;-82
2023/01/20 01:15:00;;;;;;;0.50;0.50;;;1.40;99.90;;;;;;5046907;28;20499;-83
2023/01/20 01:17:26;;;;;;;0.40;0.40;;;1.40;99.90;;;;;;5025699;28;20226;-83
2023/01/20 01:19:52;;;;;;;0.40;0.40;;;1.40;99.90;;;;;;5049689;28;20170;-83
2023/01/20 01:22:18;;;;;;;0.40;0.40;;;1.40;99.90;;;;;;5045983;28;20222;-83
2023/01/20 01:24:43;;;;;;;0.40;0.40;;;1.40;99.90;;;;;;5048105;28;20460;-83
2023/01/20 01:27:09;;;;;;;0.40;0.40;;;1.40;99.90;;;;;;5045949;28;20460;-83
2023/01/20 01:29:35;;;;;;;0.33;0.33;;;1.40;99.90;;;;;;5048125;28;20299;-83
2023/01/20 01:32:00;;;;;;;0.40;0.40;;;1.40;99.90;;;;;;5047677;28;20545;-83
2023/01/20 01:34:26;;;;;;;0.40;0.40;;;1.40;99.90;;;;;;5048662;28;20584;-83
2023/01/20 01:36:51;;;;;;;0.30;0.30;;;1.40;99.90;;;;;;5043790;28;20195;-83
2023/01/20 01:39:17;;;;;;;0.40;0.40;;;1.40;99.90;;;;;;5046188;28;20238;-83
2023/01/20 01:41:43;;;;;;;0.30;0.30;;;1.40;99.90;;;;;;5043857;28;20227;-83
2023/01/20 01:44:11;;;;;;;0.40;0.40;;;1.40;99.90;;;;;;5047241;28;20226;-83
2023/01/20 01:46:38;;;;;;;0.40;0.40;;;1.40;99.90;;;;;;5046760;28;20186;-83
2023/01/20 01:49:12;;;;;;;0.40;0.40;;;1.40;99.90;;;;;;5048676;28;20441;-83
2023/01/20 01:51:43;;;;;;;0.33;0.33;;;1.40;99.90;;;;;;5037400;28;20455;-82
2023/01/20 01:54:12;;;;;;;0.40;0.40;;;1.40;99.90;;;;;;5048048;28;20464;-83
2023/01/20 01:56:40;;;;;;;0.40;0.40;;;1.40;99.90;;;;;;5045239;28;20443;-82
2023/01/20 01:59:06;;;;;;;0.40;0.40;;;1.40;99.90;;;;;;5045491;28;20852;-82
2023/01/20 02:01:35;;;;;;;0.30;0.30;;;1.40;99.90;;;;;;5043298;28;20477;-83
2023/01/20 02:04:09;;;;;;;0.40;0.40;;;1.40;99.90;;;;;;5027809;28;20445;-83
2023/01/20 02:06:39;;;;;;;0.30;0.30;;;1.40;99.90;;;;;;5028478;28;20433;-83
2023/01/20 02:09:05;;;;;;;0.33;0.33;;;1.30;99.90;;;;;;5045119;28;21003;-82
2023/01/20 02:11:36;;;;;;;0.30;0.30;;;1.30;99.90;;;;;;5038807;28;20473;-82
2023/01/20 02:14:02;;;;;;;0.40;0.40;;;1.30;99.90;;;;;;5042001;28;20182;-82
2023/01/20 02:16:27;;;;;;;0.40;0.40;;;1.30;99.90;;;;;;5046174;28;20503;-83
2023/01/20 02:19:20;;;;;;;0.47;0.47;;;1.30;99.90;;;;;;5047371;28;20185;-83
2023/01/20 02:22:10;;;;;;;0.40;0.40;;;1.30;99.90;;;;;;5043929;28;20697;-83
2023/01/20 02:25:03;;;;;;;0.30;0.30;;;1.30;99.90;;;;;;5046649;28;20441;-82
2023/01/20 02:27:34;;;;;;;0.40;0.40;;;1.20;99.90;;;;;;5045020;28;20447;-82
2023/01/20 02:30:37;;;;;;;0.37;0.37;;;1.20;99.90;;;;;;5048886;28;20524;-83
2023/01/20 02:33:11;;;;;;;0.50;0.50;;;1.20;99.90;;;;;;5045853;28;20487;-83
2023/01/20 02:35:45;;;;;;;0.40;0.40;;;1.20;99.90;;;;;;5032701;28;20488;-83
2023/01/20 02:38:22;;;;;;;0.40;0.40;;;1.20;99.90;;;;;;5047125;28;20507;-82
2023/01/20 02:41:16;;;;;;;0.40;0.40;;;1.20;99.90;;;;;;5051170;28;20494;-83
2023/01/20 02:43:52;;;;;;;0.30;0.30;;;1.20;99.90;;;;;;5048730;28;20445;-82
2023/01/20 02:46:34;;;;;;;0.30;0.30;;;1.20;99.90;;;;;;5049604;28;20437;-82
2023/01/20 02:49:13;;;;;;;0.30;0.30;;;1.20;99.90;;;;;;5053172;28;20424;-83
2023/01/20 02:51:52;;;;;;;0.30;0.30;;;1.20;99.90;;;;;;5031901;28;20432;-83
2023/01/20 02:54:20;;;;;;;0.37;0.37;;;1.20;99.90;;;;;;5050870;28;20452;-83
2023/01/20 02:56:48;;;;;;;0.37;0.37;;;1.20;99.90;;;;;;5031374;28;20433;-83
2023/01/20 02:59:18;;;;;;;0.40;0.40;;;1.20;99.90;;;;;;5034464;28;20901;-83
2023/01/20 03:01:52;;;;;;;0.40;0.40;;;1.30;99.90;;;;;;5049750;28;20465;-82
2023/01/20 03:04:22;;;;;;;0.30;0.30;;;1.20;99.90;;;;;;5050010;28;20451;-83
2023/01/20 03:06:52;;;;;;;0.40;0.40;;;1.20;99.90;;;;;;5049811;28;20457;-83
2023/01/20 03:09:22;;;;;;;0.33;0.33;;;1.20;99.90;;;;;;5048364;28;20993;-83
2023/01/20 03:11:53;;;;;;;0.37;0.37;;;1.20;99.90;;;;;;5031822;28;20454;-82
2023/01/20 03:14:19;;;;;;;0.30;0.30;;;1.20;99.90;;;;;;5030441;28;20524;-83
2023/01/20 03:16:47;;;;;;;0.30;0.30;;;1.20;99.90;;;;;;5029169;28;20469;-83
2023/01/20 03:19:14;;;;;;;0.30;0.30;;;1.20;99.90;;;;;;5051499;28;20182;-83
2023/01/20 03:21:40;;;;;;;0.33;0.33;;;1.30;99.90;;;;;;5043319;28;20925;-81
2023/01/20 03:24:06;;;;;;;0.30;0.30;;;1.30;99.90;;;;;;5027186;28;20520;-83
2023/01/20 03:26:32;;;;;;;0.40;0.40;;;1.30;99.90;;;;;;5051330;28;20245;-83
2023/01/20 03:28:59;;;;;;;0.40;0.40;;;1.30;99.90;;;;;;5046666;28;20527;-83
2023/01/20 03:31:49;;;;;;;0.40;0.40;;;1.30;99.90;;;;;;5049243;28;20510;-82
2023/01/20 03:34:19;;;;;;;0.40;0.40;;;1.30;99.90;;;;;;5049744;28;20449;-83
2023/01/20 03:36:46;;;;;;;0.30;0.30;;;1.30;99.90;;;;;;5047727;28;20441;-83
2023/01/20 03:39:12;;;;;;;0.23;0.23;;;1.20;99.90;;;;;;5042680;28;20477;-83
2023/01/20 03:41:45;;;;;;;0.30;0.30;;;1.20;99.90;;;;;;5049687;28;21006;-82
2023/01/20 03:44:50;;;;;;;0.40;0.40;;;1.20;99.90;;;;;;5049257;28;20445;-82
2023/01/20 03:47:26;;;;;;;0.50;0.50;;;1.20;99.90;;;;;;5032241;28;20952;-82
2023/01/20 03:50:24;;;;;;;0.40;0.40;;;1.20;99.90;;;;;;5033878;28;20444;-83
2023/01/20 03:52:52;;;;;;;0.40;0.40;;;1.10;99.90;;;;;;5012608;28;20504;-83
2023/01/20 03:55:21;;;;;;;0.40;0.40;;;1.10;99.90;;;;;;5047060;28;20499;-83
2023/01/20 03:57:55;;;;;;;0.40;0.40;;;1.20;99.90;;;;;;5030528;28;20969;-83
2023/01/20 04:00:23;;;;;;;0.47;0.47;;;1.10;99.90;;;;;;5052925;28;21039;-82
2023/01/20 04:02:50;;;;;;;0.50;0.50;;;1.10;99.90;;;;;;5030580;28;20532;-83
2023/01/20 04:05:16;;;;;;;0.40;0.40;;;1.10;99.90;;;;;;5048598;28;20441;-83
2023/01/20 04:07:44;;;;;;;0.40;0.40;;;1.10;99.90;;;;;;5049138;28;20451;-83
2023/01/20 04:10:13;;;;;;;0.40;0.40;;;1.10;99.90;;;;;;5049132;28;20437;-83
2023/01/20 04:12:39;;;;;;;0.30;0.30;;;1.10;99.90;;;;;;5030656;28;20523;-82
2023/01/20 04:15:06;;;;;;;0.33;0.33;;;1.10;99.90;;;;;;5027771;28;20536;-82
2023/01/20 04:17:32;;;;;;;0.40;0.40;;;1.10;99.90;;;;;;5030873;28;20701;-84
2023/01/20 04:20:02;;;;;;;0.40;0.40;;;1.10;99.90;;;;;;5047854;28;20465;-83
2023/01/20 04:22:37;;;;;;;0.37;0.37;;;1.00;99.90;;;;;;5029769;28;20219;-83
2023/01/20 04:25:13;;;;;;;0.30;0.30;;;1.10;99.90;;;;;;5048854;28;20437;-83
2023/01/20 04:27:39;;;;;;;0.40;0.40;;;1.00;99.90;;;;;;5041705;28;20527;-83
2023/01/20 04:30:05;;;;;;;0.50;0.50;;;1.10;99.90;;;;;;5044908;28;20532;-82
2023/01/20 04:32:30;;;;;;;0.43;0.43;;;1.00;99.90;;;;;;5047950;28;20213;-83
2023/01/20 04:34:56;;;;;;;0.40;0.40;;;1.00;99.90;;;;;;5046701;28;20945;-83
2023/01/20 04:37:21;;;;;;;0.40;0.40;;;1.00;99.90;;;;;;5046261;28;20190;-83
2023/01/20 04:39:47;;;;;;;0.40;0.40;;;1.00;99.90;;;;;;5049021;28;20601;-83
2023/01/20 04:42:12;;;;;;;0.40;0.40;;;1.00;99.90;;;;;;5044977;28;20222;-83
2023/01/20 04:44:38;;;;;;;0.40;0.40;;;1.00;99.90;;;;;;5044203;28;20187;-83
2023/01/20 04:47:04;;;;;;;0.30;0.30;;;1.00;99.90;;;;;;5043733;28;20190;-82
2023/01/20 04:49:29;;;;;;;0.40;0.40;;;1.00;99.90;;;;;;5047500;28;20187;-83
2023/01/20 04:51:55;;;;;;;0.40;0.40;;;1.00;99.90;;;;;;5047252;28;20553;-83
2023/01/20 04:54:20;;;;;;;0.30;0.30;;;1.00;99.90;;;;;;5049613;28;20206;-82
2023/01/20 04:56:49;;;;;;;0.30;0.30;;;1.00;99.90;;;;;;5048043;28;20191;-83
2023/01/20 04:59:15;;;;;;;0.30;0.30;;;1.00;99.90;;;;;;5047406;28;20194;-83
2023/01/20 05:01:40;;;;;;;0.50;0.50;;;1.00;99.90;;;;;;5047285;28;20475;-83
2023/01/20 05:04:06;;;;;;;0.40;0.40;;;1.00;99.90;;;;;;5045208;28;20711;-83
2023/01/20 05:06:31;;;;;;;0.40;0.40;;;1.10;99.90;;;;;;5050863;28;20194;-81
2023/01/20 05:08:56;;;;;;;0.30;0.30;;;1.10;99.90;;;;;;5047795;28;20593;-81
2023/01/20 05:11:22;;;;;;;0.30;0.30;;;1.10;99.90;;;;;;5045940;28;20666;-82
2023/01/20 05:13:47;;;;;;;0.50;0.50;;;1.10;99.90;;;;;;5047768;28;20182;-83
2023/01/20 05:16:13;;;;;;;0.40;0.40;;;1.10;99.90;;;;;;5044666;28;20198;-83
2023/01/20 05:18:39;;;;;;;0.40;0.40;;;1.10;99.90;;;;;;5047472;28;20175;-83
2023/01/20 05:21:07;;;;;;;0.40;0.40;;;1.10;99.90;;;;;;5044454;28;20293;-83
2023/01/20 05:23:33;;;;;;;0.40;0.40;;;1.10;99.90;;;;;;5054559;28;20186;-82
2023/01/20 05:25:58;;;;;;;0.40;0.40;;;1.10;99.90;;;;;;5042704;28;20503;-83
2023/01/20 05:28:24;;;;;;;0.40;0.40;;;1.20;99.90;;;;;;5045294;28;20212;-80
2023/01/20 05:30:50;;;;;;;0.40;0.40;;;1.20;99.90;;;;;;5046070;28;20933;-81
2023/01/20 05:33:15;;;;;;;0.40;0.40;;;1.20;99.90;;;;;;5047206;28;20188;-82
2023/01/20 05:35:41;;;;;;;0.40;0.40;;;1.10;99.90;;;;;;5048428;28;20437;-83
2023/01/20 05:38:06;;;;;;;0.30;0.30;;;1.10;99.90;;;;;;5048249;28;20841;-82
2023/01/20 05:40:32;;;;;;;0.40;0.40;;;1.10;99.90;;;;;;5027428;28;20189;-83
2023/01/20 05:42:59;;;;;;;0.33;0.33;;;1.10;99.90;;;;;;5048969;28;20222;-83
2023/01/20 05:45:24;;;;;;;0.43;0.43;;;1.10;99.90;;;;;;5045287;28;20559;-82
2023/01/20 05:47:57;;;;;;;0.30;0.30;;;1.10;99.90;;;;;;5048438;28;20445;-83
2023/01/20 05:50:23;;;;;;;0.37;0.37;;;1.10;99.90;;;;;;5048559;28;20227;-83
2023/01/20 05:52:48;;;;;;;0.40;0.40;;;1.10;99.90;;;;;;5050120;28;20504;-83
2023/01/20 05:55:14;;;;;;;0.30;0.30;;;1.10;99.90;;;;;;5047909;28;20524;-82
2023/01/20 05:57:39;;;;;;;0.40;0.40;;;1.20;99.90;;;;;;5057968;28;20789;-83
2023/01/20 06:00:05;;;;;;;0.40;0.40;;;1.10;99.90;;;;;;5047031;28;20202;-82
2023/01/20 06:02:31;;;;;;;0.30;0.30;;;1.20;99.90;;;;;;5043973;28;20222;-83
2023/01/20 06:05:00;;;;;;;0.40;0.40;;;1.20;99.90;;;;;;5046178;28;21083;-82
2023/01/20 06:07:29;;;;;;;0.40;0.40;;;1.20;99.90;;;;;;5042842;28;20310;-83
2023/01/20 06:09:55;;;;;;;0.40;0.40;;;1.20;99.90;;;;;;5028379;28;20988;-83
2023/01/20 06:12:20;;;;;;;0.30;0.30;;;1.20;99.90;;;;;;5048318;28;20587;-83
2023/01/20 06:14:46;;;;;;;0.50;0.50;;;1.10;99.90;;;;;;5045920;28;20548;-83
2023/01/20 06:17:11;;;;;;;0.40;0.40;;;1.10;99.90;;;;;;5044625;28;20210;-83
2023/01/20 06:19:37;;;;;;;0.40;0.40;;;1.10;99.90;;;;;;5048729;28;20182;-83
2023/01/20 06:22:03;;;;;;;0.30;0.30;;;1.10;99.90;;;;;;5045972;28;20824;-82
2023/01/20 06:24:28;;;;;;;0.30;0.30;;;1.00;99.90;;;;;;5029855;28;20178;-82
2023/01/20 06:26:54;;;;;;;0.40;0.40;;;1.00;99.90;;;;;;5050083;28;20260;-83
2023/01/20 06:29:19;;;;;;;0.50;0.50;;;1.00;99.90;;;;;;5042039;28;20187;-83
2023/01/20 06:31:46;;;;;;;0.30;0.30;;;1.00;99.90;;;;;;5042771;28;20554;-82
2023/01/20 06:34:12;;;;;;;0.37;0.37;;;1.00;99.90;;;;;;5043737;28;20276;-85
2023/01/20 06:36:38;;;;;;;0.50;0.50;;;1.00;99.90;;;;;;5039307;28;20926;-86
2023/01/20 06:39:03;;;;;;;0.40;0.40;;;1.00;99.90;;;;;;5050346;28;20476;-87
2023/01/20 06:41:29;;;;;;;0.40;0.40;;;1.10;99.90;;;;;;5034429;28;20214;-87
2023/01/20 06:43:54;;;;;;;0.40;0.40;;;1.00;99.90;;;;;;5036697;28;20256;-87
2023/01/20 06:46:21;;;;;;;0.40;0.40;;;1.00;99.90;;;;;;5044889;28;20210;-85
2023/01/20 06:48:46;;;;;;;0.40;0.40;;;1.00;99.90;;;;;;5042318;28;20179;-87
2023/01/20 06:51:14;;;;;;;0.40;0.40;;;1.00;99.90;;;;;;5046422;28;20444;-88
2023/01/20 06:53:40;;;;;;;0.40;0.40;;;1.00;99.90;;;;;;5044397;28;20187;-87
2023/01/20 06:56:06;;;;;;;0.30;0.30;;;1.00;99.90;;;;;;5047270;28;20540;-86
2023/01/20 06:58:32;;;;;;;0.40;0.40;;;1.00;99.90;;;;;;5045351;28;20455;-87
2023/01/20 07:01:05;;;;;;;0.40;0.40;;;1.00;99.90;;;;;;5029828;28;21079;-87
2023/01/20 07:03:31;;;;;;;0.40;0.40;;;1.00;99.90;;;;;;5029143;28;20453;-86
2023/01/20 07:05:59;;;;;;;0.40;0.40;;;1.00;99.90;;;;;;5049177;28;21095;-86
2023/01/20 07:08:25;;;;;;;0.40;0.40;;;1.00;99.90;;;;;;5048768;28;20209;-85
2023/01/20 07:10:51;;;;;;;0.40;0.40;;;1.00;99.90;;;;;;5048981;28;20833;-85
2023/01/20 07:13:16;;;;;;;0.40;0.40;;;1.00;99.90;;;;;;5050591;28;20221;-85
2023/01/20 07:15:42;;;;;;;0.30;0.30;;;1.00;99.90;;;;;;5045106;28;20297;-86
2023/01/20 07:18:07;;;;;;;0.50;0.50;;;0.90;99.90;;;;;;5051025;28;20190;-86
2023/01/20 07:20:33;;;;;;;0.43;0.43;;;0.90;99.90;;;;;;5050502;28;20698;-86
2023/01/20 07:23:00;;;;;;;0.40;0.40;;;0.90;99.90;;;;;;5047303;28;20234;-86
2023/01/20 07:25:25;;;;;;;0.40;0.40;;;0.80;99.90;;;;;;5046290;28;20659;-86
2023/01/20 07:27:52;;;;;;;0.40;0.40;;;0.80;99.90;;;;;;5050690;28;20445;-86
2023/01/20 07:30:17;;;;;;;0.40;0.40;;;0.90;99.90;;;;;;5041854;28;20203;-86
2023/01/20 07:32:43;;;;;;;0.40;0.40;;;0.90;99.90;;;;;;5046349;28;22150;-86
2023/01/20 07:35:08;;;;;;;0.50;0.50;;;0.90;99.90;;;;;;5049109;28;20715;-86
2023/01/20 07:37:34;;;;;;;0.40;0.40;;;0.90;99.90;;;;;;5040680;28;20675;-86
2023/01/20 07:39:59;;;;;;;0.40;0.40;;;0.80;99.90;;;;;;5028265;28;20226;-85
2023/01/20 07:42:25;;;;;;;0.30;0.30;;;0.90;99.90;;;;;;5047362;28;20691;-86
2023/01/20 07:44:50;;;;;;;0.37;0.37;;;0.90;99.90;;;;;;5044702;28;20635;-86
2023/01/20 07:47:16;;;;;;;0.40;0.40;;;0.90;99.90;;;;;;5029492;28;20195;-85
2023/01/20 07:49:41;;;;;;;0.30;0.30;;;0.90;99.90;;;;;;5044707;28;20195;-84
2023/01/20 07:52:07;;;;;;;0.30;0.30;;;0.80;99.90;;;;;;5047130;28;20187;-84
2023/01/20 07:54:32;;;;;;;0.40;0.40;;;0.80;99.90;;;;;;5048899;28;20187;-85
2023/01/20 07:56:58;;;;;;;0.40;0.40;;;0.70;99.90;;;;;;5038646;28;20175;-84
2023/01/20 07:59:23;;;;;;;0.30;0.30;;;0.70;99.90;;;;;;5049166;28;20186;-84
2023/01/20 08:01:49;;;;;;;0.40;0.40;;;0.50;99.90;;;;;;5045103;28;20230;-84
2023/01/20 08:04:14;;;;;;;0.40;0.40;;;0.60;99.90;;;;;;5044298;28;20213;-84
2023/01/20 08:06:40;;;;;;;0.40;0.40;;;0.60;99.90;;;;;;5042651;28;20657;-84
2023/01/20 08:09:08;;;;;;;0.30;0.30;;;0.60;99.90;;;;;;5047984;28;20199;-84
2023/01/20 08:11:34;;;;;;;0.40;0.40;;;0.50;99.90;;;;;;5048426;28;20189;-84
2023/01/20 08:13:59;;;;;;;0.40;0.40;;;0.50;99.90;;;;;;5036251;28;20467;-83
2023/01/20 08:16:25;;;;;;;0.33;0.33;;;0.50;99.90;;;;;;5032160;28;20187;-85
2023/01/20 08:18:52;;;;;;;0.50;0.50;;;0.50;99.90;;;;;;5029174;28;20198;-85
2023/01/20 08:21:27;;;;;;;0.30;0.30;;;0.50;99.90;;;;;;5048351;28;20195;-85
2023/01/20 08:23:55;;;;;;;0.37;0.37;;;0.50;99.90;;;;;;5047794;28;20867;-86
2023/01/20 08:26:23;;;;;;;0.40;0.40;;;0.50;99.90;;;;;;5046558;28;20444;-85
2023/01/20 08:28:49;;;;;;;0.40;0.40;;;0.50;99.90;;;;;;5027905;28;20539;-86
2023/01/20 08:31:17;;;;;;;0.47;0.47;;;0.50;99.90;;;;;;5044488;28;20553;-85
2023/01/20 08:33:44;;;;;;;0.40;0.40;;;0.50;99.90;;;;;;5049119;28;21035;-86
2023/01/20 08:36:13;;;;;;;0.40;0.40;;;0.50;99.90;;;;;;5051529;28;20802;-86
2023/01/20 08:38:39;;;;;;;0.33;0.33;;;0.50;99.90;;;;;;5049432;28;20480;-84
2023/01/20 08:41:07;;;;;;;0.40;0.40;;;0.40;99.90;;;;;;5037574;28;20456;-86
2023/01/20 08:43:32;;;;;;;0.40;0.40;;;0.40;99.90;;;;;;5041480;28;20484;-86
2023/01/20 08:46:05;;;;;;;0.40;0.40;;;0.30;99.90;;;;;;5050345;28;20483;-85
2023/01/20 08:48:30;;;;;;;0.40;0.40;;;0.40;99.90;;;;;;5049022;28;20577;-85
2023/01/20 08:50:56;;;;;;;0.40;0.40;;;0.40;99.90;;;;;;5033114;28;20429;-85
2023/01/20 08:53:21;;;;;;;0.40;0.40;;;0.40;99.90;;;;;;5050626;28;20183;-86
2023/01/20 08:55:55;;;;;;;0.43;0.43;;;0.40;99.90;;;;;;5051153;28;20180;-86
2023/01/20 08:58:21;;;;;;;0.30;0.30;;;0.30;99.90;;;;;;5049311;28;20275;-86
2023/01/20 09:00:46;;;;;;;0.40;0.40;;;0.30;99.90;;;;;;5049761;28;20866;-86
2023/01/20 09:03:11;;;;;;;0.40;0.40;;;0.30;99.90;;;;;;5024120;28;20219;-86
2023/01/20 09:05:37;;;;;;;0.40;0.40;;;0.40;99.90;;;;;;5046180;28;20195;-86
2023/01/20 09:08:04;;;;;;;0.50;0.50;;;0.30;99.90;;;;;;5049783;28;20702;-86
2023/01/20 09:10:32;;;;;;;0.40;0.40;;;0.40;99.90;;;;;;5050661;28;20186;-86
2023/01/20 09:12:57;;;;;;;0.40;0.40;;;0.30;99.90;;;;;;5044126;28;20449;-87
2023/01/20 09:15:23;;;;;;;0.30;0.30;;;0.30;99.90;;;;;;5050558;28;20928;-87
2023/01/20 09:17:48;;;;;;;0.30;0.30;;;0.40;99.90;;;;;;5046364;28;20197;-87
2023/01/20 09:20:14;;;;;;;0.33;0.33;;;0.30;99.90;;;;;;5048002;28;20186;-86
2023/01/20 09:22:39;;;;;;;0.43;0.43;;;0.30;99.90;;;;;;5049880;28;20226;-87
2023/01/20 09:25:07;;;;;;;0.33;0.33;;;0.40;99.90;;;;;;5050565;28;20600;-87
2023/01/20 09:27:32;;;;;;;0.40;0.40;;;0.40;99.90;;;;;;5048940;28;20194;-86
2023/01/20 09:29:58;;;;;;;0.40;0.40;;;0.40;99.90;;;;;;5050257;28;20780;-86
2023/01/20 09:32:23;;;;;;;0.43;0.43;;;0.30;99.90;;;;;;5050031;28;20186;-87
2023/01/20 09:34:49;;;;;;;0.30;0.30;;;0.40;99.90;;;;;;5048881;28;20255;-88
2023/01/20 09:46:00;;;;;;;0.40;0.40;;;0.40;99.90;;;;;;5050284;28;20448;-87
2023/01/20 09:55:03;;;;;;;0.40;0.40;;;0.40;99.90;;;;;;5049864;28;20816;-87
2023/01/20 09:57:35;;;;;;;0.40;0.40;;;0.50;99.90;;;;;;5048597;28;20532;-87
2023/01/20 10:00:08;;;;;;;0.47;0.47;;;0.60;99.90;;;;;;5049501;28;20821;-87
2023/01/20 10:02:35;;;;;;;0.43;0.43;;;0.60;99.90;;;;;;5042783;28;20972;-86
2023/01/20 10:05:12;;;;;;;0.50;0.50;;;0.50;99.90;;;;;;5029099;28;20532;-86
2023/01/20 10:08:04;;;;;;;0.40;0.40;;;0.60;99.90;;;;;;5048907;28;20948;-86
2023/01/20 10:11:00;;;;;;;0.40;0.40;;;0.70;99.90;;;;;;5037729;28;20445;-86
2023/01/20 10:13:32;;;;;;;0.40;0.40;;;0.70;99.90;;;;;;5030259;28;20527;-86
2023/01/20 10:16:01;;;;;;;0.40;0.40;;;0.70;99.90;;;;;;5030053;28;20491;-86
2023/01/20 10:19:00;;;;;;;0.40;0.40;;;0.60;99.90;;;;;;5048026;28;20467;-86
2023/01/20 10:21:35;;;;;;;0.40;0.40;;;0.60;99.90;;;;;;5039422;28;20469;-85
2023/01/20 10:24:10;;;;;;;0.30;0.30;;;0.70;99.90;;;;;;5047264;28;20433;-87
2023/01/20 10:26:43;;;;;;;0.37;0.37;;;0.70;99.90;;;;;;5042792;28;20468;-85
2023/01/20 10:29:43;;;;;;;0.30;0.30;;;0.80;99.90;;;;;;5046149;28;20517;-86
2023/01/20 10:32:41;;;;;;;0.40;0.40;;;0.80;99.90;;;;;;5007837;28;20449;-86
2023/01/20 10:35:17;;;;;;;0.43;0.43;;;1.00;99.90;;;;;;5042310;28;21325;-85
2023/01/20 10:37:43;;;;;;;0.40;0.40;;;1.00;99.90;;;;;;5036619;28;20476;-86
2023/01/20 10:40:35;;;;;;;0.40;0.40;;;1.00;99.90;;;;;;5041878;28;20445;-86
2023/01/20 10:43:09;;;;;;;0.47;0.47;;;1.00;99.90;;;;;;5050820;28;20230;-85
2023/01/20 10:46:12;;;;;;;0.40;0.40;;;1.00;99.90;;;;;;5048786;28;20429;-85
2023/01/20 10:49:10;;;;;;;0.40;0.40;;;1.10;99.90;;;;;;5049759;28;20441;-87
2023/01/20 10:51:42;;;;;;;0.40;0.40;;;1.10;99.90;;;;;;5049866;28;20441;-85
2023/01/20 10:54:22;;;;;;;0.40;0.40;;;1.10;99.90;;;;;;5050330;28;20451;-85
2023/01/20 10:56:57;;;;;;;0.40;0.40;;;1.10;99.90;;;;;;5053390;28;20553;-85
2023/01/20 10:59:44;;;;;;;0.40;0.40;;;0.90;99.90;;;;;;5060112;28;20853;-85
2023/01/20 11:02:15;;;;;;;0.50;0.50;;;1.00;99.90;;;;;;5051416;28;20487;-86
2023/01/20 11:04:41;;;;;;;0.30;0.30;;;0.90;99.90;;;;;;5050363;28;20524;-87
2023/01/20 11:07:16;;;;;;;0.40;0.40;;;1.00;99.90;;;;;;5050907;28;20537;-85
2023/01/20 11:09:42;;;;;;;0.37;0.37;;;1.00;99.90;;;;;;5055070;28;20223;-87
2023/01/20 11:12:17;;;;;;;0.30;0.30;;;1.00;99.90;;;;;;5051006;28;20480;-83
2023/01/20 11:14:44;;;;;;;0.40;0.40;;;1.10;99.90;;;;;;5050265;28;20537;-85
2023/01/20 11:17:17;;;;;;;0.43;0.43;;;1.10;99.90;;;;;;5047461;28;20948;-82
2023/01/20 11:20:02;;;;;;;0.40;0.40;;;1.20;99.90;;;;;;5044525;28;20448;-83
2023/01/20 11:22:34;;;;;;;0.40;0.40;;;1.30;99.90;;;;;;5047086;28;20488;-83
2023/01/20 11:25:03;;;;;;;0.40;0.40;;;1.30;99.90;;;;;;5039262;28;20483;-83
2023/01/20 11:27:40;;;;;;;0.40;0.40;;;1.20;99.90;;;;;;5049921;28;21079;-84
2023/01/20 11:30:24;;;;;;;0.50;0.50;;;1.00;99.90;;;;;;5049253;28;20468;-83
2023/01/20 11:33:27;;;;;;;0.40;0.40;;;1.00;99.90;;;;;;5040412;28;20464;-84
2023/01/20 11:36:05;;;;;;;0.33;0.33;;;1.10;99.90;;;;;;5050744;28;20459;-84
2023/01/20 11:38:40;;;;;;;0.40;0.40;;;1.10;99.90;;;;;;5048120;28;20860;-83
2023/01/20 11:41:23;;;;;;;0.40;0.40;;;1.10;99.90;;;;;;5047001;28;20940;-84
2023/01/20 11:43:50;;;;;;;0.50;0.50;;;1.20;99.90;;;;;;5028860;28;20549;-83
2023/01/20 11:46:25;;;;;;;0.40;0.40;;;1.20;99.90;;;;;;5046491;28;20434;-83
2023/01/20 11:49:13;;;;;;;0.40;0.40;;;1.20;99.90;;;;;;5036620;28;20441;-83
2023/01/20 11:51:51;;;;;;;0.50;0.50;;;1.20;99.90;;;;;;5051193;28;20528;-84
2023/01/20 11:54:21;;;;;;;0.40;0.40;;;1.30;99.90;;;;;;5044057;28;20447;-84
2023/01/20 11:56:54;;;;;;;0.40;0.40;;;1.20;99.90;;;;;;5050703;28;20440;-83
2023/01/20 11:59:26;;;;;;;0.40;0.40;;;1.20;99.90;;;;;;5048862;28;20446;-81
2023/01/20 12:02:00;;;;;;;0.40;0.40;;;1.20;99.90;;;;;;5047849;28;20473;-81
2023/01/20 12:05:04;;;;;;;0.40;0.40;;;1.30;99.90;;;;;;5031034;28;20487;-81
2023/01/20 12:07:32;;;;;;;0.40;0.40;;;1.30;99.90;;;;;;5003338;28;20452;-80
2023/01/20 12:10:10;;;;;;;0.40;0.40;;;1.30;99.90;;;;;;5046176;28;20440;-81
2023/01/20 12:12:46;;;;;;;0.40;0.40;;;1.30;99.90;;;;;;5049317;28;20440;-80
2023/01/20 12:15:21;;;;;;;0.37;0.37;;;1.30;99.90;;;;;;5042970;28;20456;-81
2023/01/20 12:17:54;;;;;;;0.50;0.50;;;1.30;99.90;;;;;;5049972;28;20603;-81
2023/01/20 12:20:39;;;;;;;0.50;0.50;;;1.30;99.90;;;;;;5038668;28;20449;-80
2023/01/20 12:23:44;;;;;;;0.50;0.50;;;1.30;99.90;;;;;;5047389;28;20601;-82
2023/01/20 12:26:14;;;;;;;0.40;0.40;;;1.30;99.90;;;;;;5030923;28;20940;-83
2023/01/20 12:28:50;;;;;;;0.40;0.40;;;1.30;99.90;;;;;;5051342;28;20425;-82
2023/01/20 12:31:19;;;;;;;0.40;0.40;;;1.30;99.90;;;;;;5028720;28;20454;-83
2023/01/20 12:33:48;;;;;;;0.50;0.50;;;1.30;99.90;;;;;;5033449;28;20862;-82
2023/01/20 12:36:33;;;;;;;0.40;0.40;;;1.30;99.90;;;;;;5049981;28;20440;-83
2023/01/20 12:39:35;;;;;;;0.40;0.40;;;1.30;99.90;;;;;;5028571;28;20484;-83
2023/01/20 12:42:00;;;;;;;0.40;0.40;;;1.30;99.90;;;;;;5030271;28;20503;-83
2023/01/20 12:44:37;;;;;;;0.40;0.40;;;1.30;99.90;;;;;;5048458;28;20433;-83
2023/01/20 12:47:17;;;;;;;0.37;0.37;;;1.40;99.90;;;;;;5059254;28;20200;-83
2023/01/20 12:50:02;;;;;;;0.30;0.30;;;1.30;99.90;;;;;;5055162;28;20439;-84
2023/01/20 12:53:11;;;;;;;0.40;0.40;;;1.30;99.90;;;;;;5032944;28;20893;-82
2023/01/20 12:55:55;;;;;;;0.40;0.40;;;1.30;99.90;;;;;;5021259;28;21054;-80
2023/01/20 12:58:39;;;;;;;0.40;0.40;;;1.30;99.90;;;;;;5031353;28;20460;-81
2023/01/20 13:01:24;;;;;;;0.50;0.50;;;1.30;99.90;;;;;;5042321;28;20454;-81
2023/01/20 13:04:11;;;;;;;0.40;0.40;;;1.30;99.90;;;;;;4999357;28;20461;-81
2023/01/20 13:06:52;;;;;;;0.33;0.33;;;1.30;99.90;;;;;;5042662;28;20468;-82
2023/01/20 13:09:41;;;;;;;0.30;0.30;;;1.30;99.90;;;;;;5047354;28;20441;-80
2023/01/20 13:12:38;;;;;;;0.33;0.33;;;1.40;99.90;;;;;;5026441;28;20516;-80
2023/01/20 13:15:33;;;;;;;0.40;0.40;;;1.40;99.90;;;;;;5053205;28;20449;-80
2023/01/20 13:18:17;;;;;;;0.40;0.40;;;1.40;99.90;;;;;;5046768;28;20448;-80
2023/01/20 13:20:45;;;;;;;0.30;0.30;;;1.40;99.90;;;;;;5034254;28;20819;-80
2023/01/20 13:23:21;;;;;;;0.40;0.40;;;1.30;99.90;;;;;;5026330;28;20484;-79
2023/01/20 13:25:48;;;;;;;0.40;0.40;;;1.30;99.90;;;;;;5050202;28;20439;-80
2023/01/20 13:28:19;;;;;;;0.40;0.40;;;1.30;99.90;;;;;;5031669;28;22480;-80
2023/01/20 13:30:49;;;;;;;0.40;0.40;;;1.30;99.90;;;;;;5036851;28;20429;-80
2023/01/20 13:33:39;;;;;;;0.40;0.40;;;1.40;99.90;;;;;;5048896;28;20449;-81